createdAt,value
2022-12-03T00:02:14.940Z,4.35
2022-12-03T00:04:41.539Z,5.53
2022-12-03T00:07:08.039Z,4.53
2022-12-03T00:09:34.480Z,4.57
2022-12-03T00:12:01.001Z,3.78
2022-12-03T00:14:27.596Z,4.32
2022-12-03T00:16:54.523Z,4.35
2022-12-03T00:19:21.173Z,4.88
2022-12-03T00:21:47.743Z,4.45
2022-12-03T00:24:14.373Z,6.45
2022-12-03T00:26:40.993Z,4.75
2022-12-03T00:29:07.563Z,4.72
2022-12-03T00:31:34.117Z,6.30
2022-12-03T00:34:00.793Z,4.03
2022-12-03T00:36:27.461Z,6.25
2022-12-03T00:38:53.995Z,4.13
2022-12-03T00:41:20.629Z,4.13
2022-12-03T00:43:47.234Z,4.15
2022-12-03T00:46:18.162Z,4.13
2022-12-03T00:48:47.668Z,4.43
2022-12-03T00:51:14.241Z,4.00
2022-12-03T00:53:40.774Z,3.80
2022-12-03T00:56:07.603Z,3.97
2022-12-03T00:58:34.480Z,4.22
2022-12-03T01:01:01.132Z,3.72
2022-12-03T01:03:27.754Z,4.72
2022-12-03T01:05:54.430Z,4.03
2022-12-03T01:08:21.011Z,3.72
2022-12-03T01:10:47.643Z,4.65
2022-12-03T01:13:14.384Z,4.22
2022-12-03T01:15:41.152Z,4.93
2022-12-03T01:18:07.794Z,3.85
2022-12-03T01:20:36.714Z,4.13
2022-12-03T01:23:03.360Z,4.28
2022-12-03T01:25:30.071Z,4.47
2022-12-03T01:27:56.670Z,5.72
2022-12-03T01:30:23.274Z,4.53
2022-12-03T01:32:49.896Z,4.78
2022-12-03T01:35:16.531Z,5.00
2022-12-03T01:37:43.218Z,5.18
2022-12-03T01:40:11.666Z,4.40
2022-12-03T01:42:40.729Z,5.38
2022-12-03T01:45:07.534Z,4.32
2022-12-03T01:47:35.915Z,6.35
2022-12-03T01:50:02.345Z,4.97
2022-12-03T01:52:30.416Z,4.78
2022-12-03T01:55:05.155Z,3.78
2022-12-03T01:57:42.195Z,3.08
2022-12-03T02:00:13.998Z,4.50
2022-12-03T02:02:40.441Z,4.75
2022-12-03T02:05:14.950Z,5.07
2022-12-03T02:07:41.450Z,4.50
2022-12-03T02:10:08.070Z,4.78
2022-12-03T02:12:37.728Z,4.82
2022-12-03T02:15:05.549Z,4.38
2022-12-03T02:17:32.117Z,4.50
2022-12-03T02:19:58.965Z,5.50
2022-12-03T02:22:45.672Z,3.97
2022-12-03T02:25:19.623Z,4.57
2022-12-03T02:27:46.502Z,3.92
2022-12-03T02:30:14.239Z,3.85
2022-12-03T02:32:40.733Z,4.15
2022-12-03T02:35:12.652Z,3.83
2022-12-03T02:37:39.104Z,3.67
2022-12-03T02:40:07.960Z,3.45
2022-12-03T02:42:37.368Z,3.97
2022-12-03T02:45:36.387Z,4.53
2022-12-03T02:48:05.357Z,4.78
2022-12-03T02:50:33.335Z,4.47
2022-12-03T02:53:01.662Z,3.97
2022-12-03T02:55:33.312Z,3.72
2022-12-03T02:58:03.261Z,3.90
2022-12-03T03:00:29.840Z,4.15
2022-12-03T03:02:56.550Z,4.05
2022-12-03T03:05:23.783Z,4.45
2022-12-03T03:07:53.013Z,4.55
2022-12-03T03:10:21.711Z,6.40
2022-12-03T03:12:48.352Z,3.80
2022-12-03T03:15:15.033Z,3.83
2022-12-03T03:17:42.457Z,3.53
2022-12-03T03:20:09.477Z,4.20
2022-12-03T03:22:37.208Z,4.20
2022-12-03T03:25:04.758Z,3.53
2022-12-03T03:27:31.355Z,3.80
2022-12-03T03:29:58.378Z,3.70
2022-12-03T03:32:25.718Z,3.38
2022-12-03T03:34:52.732Z,5.13
2022-12-03T03:37:19.452Z,3.58
2022-12-03T03:39:45.902Z,3.38
2022-12-03T03:42:12.401Z,3.17
2022-12-03T03:44:39.003Z,3.38
2022-12-03T03:47:05.752Z,3.20
2022-12-03T03:49:32.284Z,4.18
2022-12-03T03:51:58.879Z,3.97
2022-12-03T03:54:25.560Z,4.70
2022-12-03T03:56:52.258Z,3.25
2022-12-03T03:59:19.038Z,3.60
2022-12-03T04:01:46.119Z,3.95
2022-12-03T04:04:20.781Z,3.28
2022-12-03T04:06:47.405Z,4.00
2022-12-03T04:09:13.865Z,4.30
2022-12-03T04:11:58.854Z,3.33
2022-12-03T04:14:25.304Z,3.63
2022-12-03T04:16:51.970Z,3.38
2022-12-03T04:19:18.493Z,3.55
2022-12-03T04:22:03.318Z,3.10
2022-12-03T04:24:29.740Z,4.28
2022-12-03T04:27:14.541Z,3.28
2022-12-03T04:29:40.999Z,3.60
2022-12-03T04:32:26.139Z,3.92
2022-12-03T04:35:11.066Z,4.63
2022-12-03T04:37:37.578Z,3.80
2022-12-03T04:40:24.242Z,3.28
2022-12-03T04:42:50.729Z,3.75
2022-12-03T04:45:17.199Z,3.58
2022-12-03T04:47:43.662Z,3.33
2022-12-03T04:50:10.383Z,3.72
2022-12-03T04:52:36.871Z,3.50
2022-12-03T04:55:03.430Z,4.03
2022-12-03T04:57:29.872Z,4.90
2022-12-03T04:59:56.322Z,3.63
2022-12-03T05:02:22.877Z,3.55
2022-12-03T05:04:49.411Z,3.85
2022-12-03T05:07:15.921Z,6.05
2022-12-03T05:09:42.370Z,3.53
2022-12-03T05:12:08.851Z,3.15
2022-12-03T05:14:35.330Z,3.78
2022-12-03T05:17:01.805Z,4.22
2022-12-03T05:19:48.288Z,3.78
2022-12-03T05:22:14.787Z,4.30
2022-12-03T05:24:41.267Z,3.92
2022-12-03T05:27:07.768Z,3.30
2022-12-03T05:29:34.203Z,4.45
2022-12-03T05:32:01.035Z,3.50
2022-12-03T05:34:27.471Z,3.95
2022-12-03T05:36:53.952Z,3.97
2022-12-03T05:39:20.457Z,4.53
2022-12-03T05:42:05.431Z,4.30
2022-12-03T05:44:31.941Z,5.30
2022-12-03T05:46:58.527Z,3.35
2022-12-03T05:49:24.981Z,4.32
2022-12-03T05:51:56.676Z,3.25
2022-12-03T05:54:24.881Z,4.65
2022-12-03T05:56:51.311Z,4.18
2022-12-03T05:59:17.824Z,4.28
2022-12-03T06:01:44.314Z,4.82
2022-12-03T06:04:10.763Z,3.45
2022-12-03T06:06:37.239Z,3.85
2022-12-03T06:09:03.713Z,3.50
2022-12-03T06:11:30.329Z,4.18
2022-12-03T06:13:56.762Z,4.88
2022-12-03T06:16:23.242Z,3.97
2022-12-03T06:18:49.733Z,4.28
2022-12-03T06:21:16.180Z,3.95
2022-12-03T06:23:44.884Z,4.10
2022-12-03T06:26:11.894Z,6.15
2022-12-03T06:28:38.380Z,3.80
2022-12-03T06:31:04.943Z,4.90
2022-12-03T06:33:31.450Z,3.03
2022-12-03T06:35:57.842Z,5.25
2022-12-03T06:38:24.299Z,5.18
2022-12-03T06:40:50.771Z,4.38
2022-12-03T06:43:17.229Z,3.67
2022-12-03T06:45:47.720Z,4.25
2022-12-03T06:48:14.976Z,4.93
2022-12-03T06:50:41.516Z,4.45
2022-12-03T06:53:08.101Z,5.65
2022-12-03T06:55:34.519Z,5.47
2022-12-03T06:58:00.917Z,5.35
2022-12-03T07:00:27.479Z,4.82
2022-12-03T07:02:53.957Z,5.60
2022-12-03T07:05:20.438Z,4.88
2022-12-03T07:07:52.082Z,4.50
2022-12-03T07:10:19.196Z,3.92
2022-12-03T07:12:45.718Z,4.72
2022-12-03T07:15:12.375Z,5.88
2022-12-03T07:17:39.013Z,4.20
2022-12-03T07:20:05.915Z,4.22
2022-12-03T07:22:32.397Z,4.90
2022-12-03T07:24:59.308Z,3.65
2022-12-03T07:27:25.795Z,4.32
2022-12-03T07:29:52.655Z,4.60
2022-12-03T07:32:19.175Z,4.65
2022-12-03T07:34:45.656Z,4.68
2022-12-03T07:37:12.206Z,9.23
2022-12-03T07:39:38.775Z,6.95
2022-12-03T07:42:05.315Z,8.32
2022-12-03T07:44:32.078Z,4.15
2022-12-03T07:46:59.467Z,6.07
2022-12-03T07:49:26.816Z,4.88
2022-12-03T07:51:57.209Z,4.57
2022-12-03T07:54:24.348Z,6.43
2022-12-03T07:56:50.829Z,5.88
2022-12-03T07:59:17.873Z,5.95
2022-12-03T08:01:44.937Z,6.10
2022-12-03T08:04:12.955Z,6.82
2022-12-03T08:06:39.441Z,9.00
2022-12-03T08:09:05.911Z,5.60
2022-12-03T08:11:33.044Z,7.40
2022-12-03T08:13:59.724Z,6.63
2022-12-03T08:16:26.257Z,5.38
2022-12-03T08:18:54.437Z,9.85
2022-12-03T08:21:21.624Z,6.47
2022-12-03T08:23:48.206Z,6.53
2022-12-03T08:26:17.892Z,6.38
2022-12-03T08:28:44.420Z,6.38
2022-12-03T08:31:28.030Z,6.15
2022-12-03T08:34:02.244Z,6.97
2022-12-03T08:36:32.905Z,6.55
2022-12-03T08:39:01.851Z,6.10
2022-12-03T08:41:47.983Z,8.32
2022-12-03T08:44:31.543Z,7.57
2022-12-03T08:47:13.117Z,8.50
2022-12-03T08:49:40.323Z,7.80
2022-12-03T08:52:11.806Z,6.38
2022-12-03T08:54:38.363Z,6.30
2022-12-03T08:57:23.474Z,6.00
2022-12-03T08:59:50.432Z,7.03
2022-12-03T09:02:22.613Z,6.38
2022-12-03T09:04:49.213Z,5.97
2022-12-03T09:07:15.815Z,6.70
2022-12-03T09:09:42.354Z,7.47
2022-12-03T09:12:09.113Z,7.93
2022-12-03T09:14:35.653Z,6.95
2022-12-03T09:17:02.615Z,8.57
2022-12-03T09:19:32.614Z,10.32
2022-12-03T09:21:59.115Z,10.75
2022-12-03T09:24:25.736Z,13.63
2022-12-03T09:26:52.333Z,36.78
2022-12-03T09:29:18.935Z,36.80
2022-12-03T09:31:45.692Z,24.45
2022-12-03T09:34:12.493Z,17.75
2022-12-03T09:36:39.173Z,17.25
2022-12-03T09:39:06.675Z,16.52
2022-12-03T09:41:33.234Z,16.90
2022-12-03T09:44:04.493Z,16.25
2022-12-03T09:46:31.824Z,14.95
2022-12-03T09:48:58.541Z,15.70
2022-12-03T09:51:27.597Z,19.25
2022-12-03T09:53:54.213Z,14.55
2022-12-03T09:56:22.693Z,20.40
2022-12-03T09:58:49.653Z,19.85
2022-12-03T10:01:16.549Z,14.15
2022-12-03T10:03:44.877Z,18.38
2022-12-03T10:06:14.328Z,16.42
2022-12-03T10:08:41.088Z,13.85
2022-12-03T10:11:07.567Z,9.75
2022-12-03T10:13:37.366Z,13.57
2022-12-03T10:16:04.041Z,9.75
2022-12-03T10:18:38.283Z,15.32
2022-12-03T10:21:23.068Z,13.20
2022-12-03T10:23:55.157Z,20.73
2022-12-03T10:26:37.478Z,17.45
2022-12-03T10:29:11.567Z,24.00
2022-12-03T10:31:38.107Z,46.92
2022-12-03T10:34:04.597Z,33.95
2022-12-03T10:36:31.188Z,167.25
2022-12-03T10:39:09.617Z,51.17
2022-12-03T10:41:36.237Z,21.05
2022-12-03T10:44:11.637Z,27.10
2022-12-03T10:46:38.295Z,24.30
2022-12-03T10:49:09.528Z,23.70
2022-12-03T10:51:36.918Z,25.35
2022-12-03T10:54:03.718Z,26.20
2022-12-03T10:56:30.837Z,28.92
2022-12-03T10:58:57.669Z,19.88
2022-12-03T11:01:25.833Z,19.88
2022-12-03T11:03:54.181Z,26.63
2022-12-03T11:06:21.857Z,18.13
2022-12-03T11:08:57.640Z,23.65
2022-12-03T11:11:40.477Z,21.38
2022-12-03T11:14:07.111Z,16.92
2022-12-03T11:16:39.836Z,16.35
2022-12-03T11:19:14.488Z,17.17
2022-12-03T11:22:07.132Z,18.25
2022-12-03T11:24:35.347Z,17.73
2022-12-03T11:27:01.889Z,14.93
2022-12-03T11:29:47.432Z,16.75
2022-12-03T11:32:35.207Z,13.43
2022-12-03T11:35:01.912Z,13.95
2022-12-03T11:37:28.538Z,12.68
2022-12-03T11:39:55.993Z,18.63
2022-12-03T11:42:28.635Z,17.02
2022-12-03T11:45:09.946Z,15.75
2022-12-03T11:47:49.087Z,15.25
2022-12-03T11:50:19.622Z,12.98
2022-12-03T11:52:48.996Z,13.40
2022-12-03T11:55:24.991Z,13.63
2022-12-03T11:57:57.446Z,22.10
2022-12-03T12:00:24.758Z,13.57
2022-12-03T12:02:55.929Z,15.63
2022-12-03T12:05:24.590Z,15.18
2022-12-03T12:07:51.242Z,17.17
2022-12-03T12:10:36.450Z,16.50
2022-12-03T12:13:03.070Z,15.95
2022-12-03T12:15:47.610Z,18.20
2022-12-03T12:18:32.609Z,15.95
2022-12-03T12:21:17.617Z,17.95
2022-12-03T12:23:44.350Z,16.13
2022-12-03T12:26:10.830Z,18.00
2022-12-03T12:28:37.349Z,16.58
2022-12-03T12:31:09.527Z,20.05
2022-12-03T12:33:36.212Z,15.15
2022-12-03T12:36:08.310Z,14.70
2022-12-03T12:38:34.857Z,17.45
2022-12-03T12:41:06.838Z,14.43
2022-12-03T12:43:36.069Z,10.75
2022-12-03T12:46:38.692Z,11.48
2022-12-03T12:48:59.682Z,13.95
2022-12-03T12:51:26.637Z,11.13
2022-12-03T12:53:53.890Z,14.32
2022-12-03T12:56:25.191Z,14.73
2022-12-03T12:58:52.073Z,12.13
2022-12-03T13:01:24.661Z,12.48
2022-12-03T13:03:51.633Z,12.60
2022-12-03T13:06:26.674Z,17.77
2022-12-03T13:08:53.230Z,13.27
2022-12-03T13:11:25.809Z,13.35
2022-12-03T13:13:52.664Z,12.50
2022-12-03T13:16:22.204Z,11.38
2022-12-03T13:18:55.810Z,16.08
2022-12-03T13:21:24.278Z,13.55
2022-12-03T13:23:51.631Z,10.70
2022-12-03T13:26:34.490Z,13.63
2022-12-03T13:29:06.389Z,12.05
2022-12-03T13:31:41.915Z,15.43
2022-12-03T13:34:20.851Z,12.00
2022-12-03T13:36:53.499Z,14.70
2022-12-03T13:39:26.158Z,10.77
2022-12-03T13:42:11.209Z,14.80
2022-12-03T13:44:41.589Z,13.32
2022-12-03T13:47:16.549Z,11.93
2022-12-03T13:49:47.089Z,12.38
2022-12-03T13:52:16.132Z,12.98
2022-12-03T13:54:42.749Z,14.80
2022-12-03T13:57:09.270Z,9.05
2022-12-03T13:59:35.909Z,14.38
2022-12-03T14:02:02.487Z,15.77
2022-12-03T14:04:29.112Z,12.85
2022-12-03T14:06:55.710Z,16.17
2022-12-03T14:09:22.270Z,13.52
2022-12-03T14:12:07.479Z,14.25
2022-12-03T14:14:34.150Z,12.48
2022-12-03T14:17:00.759Z,11.77
2022-12-03T14:19:27.353Z,13.63
2022-12-03T14:21:53.891Z,13.38
2022-12-03T14:24:20.414Z,14.95
2022-12-03T14:26:46.930Z,13.55
2022-12-03T14:29:13.549Z,14.73
2022-12-03T14:31:40.103Z,12.32
2022-12-03T14:34:06.669Z,13.05
2022-12-03T14:36:33.192Z,14.73
2022-12-03T14:38:59.727Z,14.02
2022-12-03T14:41:45.191Z,16.60
2022-12-03T14:44:12.089Z,12.90
2022-12-03T14:46:38.698Z,15.13
2022-12-03T14:49:05.190Z,14.45
2022-12-03T14:51:31.799Z,15.25
2022-12-03T14:53:58.377Z,16.60
2022-12-03T14:56:24.910Z,16.27
2022-12-03T14:58:51.538Z,14.40
2022-12-03T15:01:18.039Z,13.20
2022-12-03T15:03:44.609Z,15.45
2022-12-03T15:06:11.209Z,13.95
2022-12-03T15:08:37.671Z,14.02
2022-12-03T15:11:04.429Z,13.60
2022-12-03T15:13:31.078Z,13.43
2022-12-03T15:15:57.732Z,15.20
2022-12-03T15:18:24.270Z,13.90
2022-12-03T15:20:50.891Z,14.73
2022-12-03T15:23:18.030Z,17.63
2022-12-03T15:25:44.629Z,13.57
2022-12-03T15:28:11.254Z,13.65
2022-12-03T15:30:37.986Z,16.05
2022-12-03T15:33:05.050Z,13.57
2022-12-03T15:35:31.670Z,14.82
2022-12-03T15:37:58.410Z,13.43
2022-12-03T15:40:25.571Z,13.02
2022-12-03T15:42:52.318Z,13.60
2022-12-03T15:45:19.012Z,13.20
2022-12-03T15:47:45.611Z,13.90
2022-12-03T15:50:13.651Z,11.65
2022-12-03T15:52:40.350Z,15.57
2022-12-03T15:55:07.310Z,15.38
2022-12-03T15:57:33.851Z,14.73
2022-12-03T16:00:00.454Z,14.52
2022-12-03T16:02:33.699Z,16.60
2022-12-03T16:05:04.573Z,20.92
2022-12-03T16:07:31.203Z,20.42
2022-12-03T16:09:57.751Z,20.35
2022-12-03T16:12:24.670Z,19.00
2022-12-03T16:14:51.522Z,18.15
2022-12-03T16:17:18.139Z,16.98
2022-12-03T16:19:44.649Z,20.83
2022-12-03T16:22:11.229Z,13.93
2022-12-03T16:24:37.911Z,14.32
2022-12-03T16:27:04.629Z,14.02
2022-12-03T16:29:31.228Z,18.88
2022-12-03T16:31:57.930Z,16.30
2022-12-03T16:34:24.450Z,13.30
2022-12-03T16:36:51.012Z,13.43
2022-12-03T16:39:17.610Z,15.55
2022-12-03T16:41:44.190Z,13.25
2022-12-03T16:44:20.273Z,14.55
2022-12-03T16:46:47.156Z,12.65
2022-12-03T16:49:13.770Z,12.77
2022-12-03T16:51:40.291Z,14.80
2022-12-03T16:54:06.790Z,12.15
2022-12-03T16:56:33.351Z,13.57
2022-12-03T16:58:59.917Z,14.38
2022-12-03T17:01:26.561Z,21.15
2022-12-03T17:03:53.150Z,13.85
2022-12-03T17:06:19.730Z,9.93
2022-12-03T17:08:49.713Z,12.98
2022-12-03T17:11:16.817Z,13.65
2022-12-03T17:13:43.410Z,16.58
2022-12-03T17:16:09.953Z,13.05
2022-12-03T17:18:36.610Z,13.25
2022-12-03T17:21:03.290Z,11.35
2022-12-03T17:23:29.810Z,11.40
2022-12-03T17:25:56.269Z,15.68
2022-12-03T17:28:22.810Z,11.38
2022-12-03T17:30:49.498Z,12.20
2022-12-03T17:33:16.053Z,13.05
2022-12-03T17:35:43.432Z,14.32
2022-12-03T17:38:10.014Z,13.07
2022-12-03T17:40:36.538Z,13.70
2022-12-03T17:43:03.440Z,10.90
2022-12-03T17:45:30.174Z,14.40
2022-12-03T17:47:56.804Z,12.38
2022-12-03T17:50:23.401Z,11.77
2022-12-03T17:52:49.970Z,11.30
2022-12-03T17:55:26.460Z,11.13
2022-12-03T17:57:57.817Z,12.93
2022-12-03T18:00:24.349Z,13.55
2022-12-03T18:02:50.913Z,11.80
2022-12-03T18:05:17.496Z,11.70
2022-12-03T18:07:44.103Z,16.33
2022-12-03T18:10:10.809Z,16.10
2022-12-03T18:12:37.530Z,12.63
2022-12-03T18:15:04.260Z,13.18
2022-12-03T18:17:30.754Z,15.90
2022-12-03T18:19:57.773Z,11.60
2022-12-03T18:22:24.531Z,17.92
2022-12-03T18:24:51.947Z,13.25
2022-12-03T18:27:20.053Z,12.63
2022-12-03T18:29:46.571Z,12.63
2022-12-03T18:32:27.586Z,12.02
2022-12-03T18:34:55.793Z,11.27
2022-12-03T18:37:22.912Z,15.82
2022-12-03T18:39:49.412Z,15.10
2022-12-03T18:42:17.591Z,16.42
2022-12-03T18:44:49.463Z,12.73
2022-12-03T18:47:18.849Z,11.27
2022-12-03T18:49:45.773Z,12.55
2022-12-03T18:52:16.078Z,13.35
2022-12-03T18:54:43.070Z,12.95
2022-12-03T18:57:09.813Z,12.38
2022-12-03T18:59:36.670Z,12.40
2022-12-03T19:02:03.316Z,13.50
2022-12-03T19:04:29.851Z,11.15
2022-12-03T19:06:56.450Z,11.63
2022-12-03T19:09:22.989Z,12.45
2022-12-03T19:11:49.554Z,16.67
2022-12-03T19:14:16.049Z,12.07
2022-12-03T19:16:42.726Z,15.05
2022-12-03T19:19:09.556Z,13.02
2022-12-03T19:21:36.249Z,15.52
2022-12-03T19:26:54.500Z,21.73
2022-12-03T19:29:24.491Z,17.38
2022-12-03T19:31:51.458Z,19.52
2022-12-03T19:34:18.370Z,18.80
2022-12-03T19:36:45.090Z,23.15
2022-12-03T19:39:11.798Z,23.70
2022-12-03T19:41:38.470Z,21.00
2022-12-03T19:44:09.352Z,17.08
2022-12-03T19:46:37.509Z,14.85
2022-12-03T19:49:05.065Z,16.20
2022-12-03T19:51:35.014Z,15.70
2022-12-03T19:54:02.819Z,16.88
2022-12-03T19:56:30.492Z,15.82
2022-12-03T19:58:57.452Z,13.43
2022-12-03T20:01:28.735Z,15.02
2022-12-03T20:03:56.303Z,14.02
2022-12-03T20:06:24.749Z,13.10
2022-12-03T20:08:54.928Z,13.60
2022-12-03T20:11:22.889Z,17.80
2022-12-03T20:13:52.206Z,18.73
2022-12-03T20:16:18.948Z,16.73
2022-12-03T20:18:46.371Z,16.58
2022-12-03T20:21:13.517Z,19.70
2022-12-03T20:23:40.170Z,16.48
2022-12-03T20:26:07.171Z,15.70
2022-12-03T20:28:33.706Z,17.98
2022-12-03T20:31:07.334Z,15.95
2022-12-03T20:33:34.090Z,16.25
2022-12-03T20:36:00.615Z,15.95
2022-12-03T20:38:27.242Z,20.75
2022-12-03T20:40:53.792Z,17.58
2022-12-03T20:43:20.292Z,17.20
2022-12-03T20:45:46.823Z,17.75
2022-12-03T20:48:14.105Z,17.00
2022-12-03T20:50:41.013Z,30.70
2022-12-03T20:53:24.182Z,49.45
2022-12-03T20:55:55.348Z,21.10
2022-12-03T20:58:21.869Z,20.15
2022-12-03T21:00:48.465Z,17.52
2022-12-03T21:03:14.922Z,23.45
2022-12-03T21:05:42.653Z,24.85
2022-12-03T21:08:09.555Z,17.40
2022-12-03T21:10:46.178Z,18.75
2022-12-03T21:13:13.451Z,16.77
2022-12-03T21:15:40.387Z,20.15
2022-12-03T21:18:07.868Z,27.98
2022-12-03T21:20:38.954Z,19.23
2022-12-03T21:23:05.492Z,36.58
2022-12-03T21:25:32.019Z,26.10
2022-12-03T21:27:59.232Z,21.40
2022-12-03T21:30:25.750Z,18.08
2022-12-03T21:32:52.313Z,20.52
2022-12-03T21:35:19.002Z,18.98
2022-12-03T21:37:45.521Z,13.95
2022-12-03T21:40:12.163Z,16.45
2022-12-03T21:42:38.600Z,18.00
2022-12-03T21:45:05.309Z,17.25
2022-12-03T21:47:36.992Z,17.95
2022-12-03T21:50:07.314Z,15.85
2022-12-03T21:52:34.565Z,20.40
2022-12-03T21:55:01.106Z,14.30
2022-12-03T21:57:27.700Z,16.23
2022-12-03T21:59:55.529Z,14.65
2022-12-03T22:02:22.491Z,14.82
2022-12-03T22:04:49.698Z,12.73
2022-12-03T22:07:16.267Z,15.30
2022-12-03T22:09:42.775Z,16.50
2022-12-03T22:12:09.431Z,17.02
2022-12-03T22:14:36.027Z,14.60
2022-12-03T22:17:02.545Z,15.07
2022-12-03T22:19:29.022Z,15.10
2022-12-03T22:21:55.689Z,15.13
2022-12-03T22:24:23.914Z,14.45
2022-12-03T22:26:52.228Z,12.40
2022-12-03T22:29:18.865Z,19.10
2022-12-03T22:31:45.361Z,13.90
2022-12-03T22:34:11.922Z,15.00
2022-12-03T22:36:38.552Z,13.20
2022-12-03T22:39:05.140Z,12.82
2022-12-03T22:41:31.783Z,13.73
2022-12-03T22:43:58.312Z,14.35
2022-12-03T22:46:24.887Z,13.75
2022-12-03T22:48:51.462Z,13.70
2022-12-03T22:51:19.621Z,16.13
2022-12-03T22:53:46.464Z,15.82
2022-12-03T22:56:13.312Z,15.10
2022-12-03T22:58:40.414Z,13.48
2022-12-03T23:01:07.584Z,13.18
2022-12-03T23:03:34.266Z,14.13
2022-12-03T23:06:00.782Z,13.20
2022-12-03T23:08:27.354Z,13.18
2022-12-03T23:10:53.907Z,14.35
2022-12-03T23:13:20.735Z,14.45
2022-12-03T23:15:48.018Z,13.60
2022-12-03T23:18:14.616Z,12.48
2022-12-03T23:20:42.357Z,11.60
2022-12-03T23:23:08.950Z,14.68
2022-12-03T23:25:35.530Z,12.80
2022-12-03T23:28:02.016Z,15.40
2022-12-03T23:30:28.481Z,12.35
2022-12-03T23:32:55.022Z,13.13
2022-12-03T23:35:21.567Z,11.35
2022-12-03T23:37:48.004Z,13.77
2022-12-03T23:40:14.615Z,15.35
2022-12-03T23:42:41.036Z,13.65
2022-12-03T23:45:08.025Z,13.13
2022-12-03T23:47:34.551Z,14.13
2022-12-03T23:50:01.071Z,12.48
2022-12-03T23:52:27.580Z,11.85
2022-12-03T23:54:54.059Z,13.32
2022-12-03T23:57:20.591Z,13.15
2022-12-03T23:59:47.147Z,12.52
